createdAt,value
2018-07-15T00:00:25.121Z,81.40
2018-07-15T00:02:54.185Z,81.02
2018-07-15T00:05:23.313Z,81.67
2018-07-15T00:07:52.609Z,82.06
2018-07-15T00:10:21.701Z,81.77
2018-07-15T00:12:50.765Z,80.97
2018-07-15T00:15:19.889Z,81.59
2018-07-15T00:17:48.953Z,81.89
2018-07-15T00:20:18.061Z,81.19
2018-07-15T00:22:47.713Z,81.36
2018-07-15T00:25:16.764Z,81.21
2018-07-15T00:27:45.829Z,81.68
2018-07-15T00:30:14.973Z,81.61
2018-07-15T00:32:44.043Z,82.12
2018-07-15T00:35:13.356Z,82.32
2018-07-15T00:37:42.405Z,82.34
2018-07-15T00:40:11.472Z,82.49
2018-07-15T00:42:40.524Z,82.83
2018-07-15T00:45:09.666Z,82.98
2018-07-15T00:47:38.738Z,83.05
2018-07-15T00:50:07.860Z,83.41
2018-07-15T00:52:36.944Z,83.07
2018-07-15T00:55:06.308Z,83.39
2018-07-15T00:57:35.414Z,83.54
2018-07-15T01:00:05.072Z,83.55
2018-07-15T01:02:34.544Z,83.42
2018-07-15T01:05:03.609Z,83.32
2018-07-15T01:07:32.962Z,83.03
2018-07-15T01:10:02.188Z,83.16
2018-07-15T01:12:31.414Z,82.94
2018-07-15T01:15:00.469Z,83.23
2018-07-15T01:17:29.606Z,83.27
2018-07-15T01:19:58.693Z,83.13
2018-07-15T01:22:27.772Z,83.04
2018-07-15T01:24:57.120Z,83.33
2018-07-15T01:27:26.216Z,82.96
2018-07-15T01:29:55.285Z,82.90
2018-07-15T01:32:24.374Z,83.10
2018-07-15T01:34:53.440Z,83.38
2018-07-15T01:37:22.676Z,83.96
2018-07-15T01:39:51.757Z,83.99
2018-07-15T01:42:21.171Z,84.24
2018-07-15T01:44:50.426Z,83.91
2018-07-15T01:47:19.626Z,83.94
2018-07-15T01:49:48.754Z,83.52
2018-07-15T01:52:17.801Z,83.76
2018-07-15T01:54:46.901Z,83.66
2018-07-15T01:57:16.006Z,84.03
2018-07-15T01:59:45.169Z,84.40
2018-07-15T02:02:14.221Z,84.28
2018-07-15T02:04:43.298Z,84.34
2018-07-15T02:07:12.420Z,84.14
2018-07-15T02:09:41.489Z,84.33
2018-07-15T02:12:10.552Z,84.81
2018-07-15T02:14:39.621Z,84.85
2018-07-15T02:17:08.706Z,84.83
2018-07-15T02:19:38.058Z,84.80
2018-07-15T02:22:07.126Z,84.73
2018-07-15T02:24:36.308Z,84.18
2018-07-15T02:27:05.389Z,83.61
2018-07-15T02:29:34.461Z,84.14
2018-07-15T02:32:03.532Z,84.16
2018-07-15T02:34:32.717Z,83.72
2018-07-15T02:37:02.748Z,84.30
2018-07-15T02:39:32.000Z,84.62
2018-07-15T02:42:01.062Z,84.76
2018-07-15T02:44:30.168Z,84.22
2018-07-15T02:46:59.226Z,84.11
2018-07-15T02:49:28.365Z,84.01
2018-07-15T02:51:57.468Z,83.95
2018-07-15T02:54:26.522Z,84.42
2018-07-15T02:56:55.607Z,84.31
2018-07-15T02:59:24.785Z,84.21
2018-07-15T03:01:53.873Z,85.11
2018-07-15T03:04:23.026Z,84.82
2018-07-15T03:06:52.132Z,84.61
2018-07-15T03:09:21.261Z,84.77
2018-07-15T03:11:50.521Z,84.83
2018-07-15T03:14:19.633Z,84.81
2018-07-15T03:16:48.706Z,84.85
2018-07-15T03:19:17.833Z,85.16
2018-07-15T03:21:46.921Z,84.97
2018-07-15T03:24:15.973Z,85.07
2018-07-15T03:26:45.069Z,85.13
2018-07-15T03:29:14.246Z,85.07
2018-07-15T03:31:43.321Z,84.93
2018-07-15T03:34:12.526Z,85.10
2018-07-15T03:36:41.601Z,84.90
2018-07-15T03:39:10.976Z,85.12
2018-07-15T03:41:40.049Z,85.32
2018-07-15T03:44:09.105Z,85.07
2018-07-15T03:46:38.201Z,85.25
2018-07-15T03:49:07.252Z,85.34
2018-07-15T03:51:36.372Z,85.30
2018-07-15T03:54:05.452Z,84.87
2018-07-15T03:56:34.592Z,85.80
2018-07-15T03:59:03.751Z,85.61
2018-07-15T04:01:32.804Z,86.37
2018-07-15T04:04:01.868Z,86.00
2018-07-15T04:06:30.916Z,85.88
2018-07-15T04:09:00.109Z,85.54
2018-07-15T04:11:29.070Z,85.81
2018-07-15T04:13:58.195Z,85.31
2018-07-15T04:16:27.261Z,84.94
2018-07-15T04:18:56.341Z,85.23
2018-07-15T04:21:25.408Z,85.06
2018-07-15T04:23:54.514Z,85.26
2018-07-15T04:26:23.653Z,84.18
2018-07-15T04:28:53.011Z,83.96
2018-07-15T04:31:22.049Z,84.38
2018-07-15T04:33:51.119Z,81.97
2018-07-15T04:36:20.185Z,81.71
2018-07-15T04:38:49.298Z,81.02
2018-07-15T04:41:18.362Z,80.17
2018-07-15T04:43:47.564Z,80.31
2018-07-15T04:46:16.545Z,80.10
2018-07-15T04:48:45.609Z,80.48
2018-07-15T04:51:14.681Z,80.14
2018-07-15T04:53:43.861Z,80.65
2018-07-15T04:56:12.941Z,79.68
2018-07-15T04:58:42.046Z,79.34
2018-07-15T05:01:11.148Z,79.33
2018-07-15T05:03:40.202Z,79.96
2018-07-15T05:06:09.344Z,79.91
2018-07-15T05:08:38.394Z,80.64
2018-07-15T05:11:07.580Z,80.41
2018-07-15T05:13:36.701Z,80.78
2018-07-15T05:16:05.798Z,80.49
2018-07-15T05:18:34.864Z,80.81
2018-07-15T05:21:04.012Z,80.82
2018-07-15T05:23:33.058Z,81.21
2018-07-15T05:26:02.194Z,80.75
2018-07-15T05:28:31.253Z,80.31
2018-07-15T05:31:00.346Z,79.95
2018-07-15T05:33:30.485Z,79.58
2018-07-15T05:35:59.566Z,79.47
2018-07-15T05:38:28.657Z,79.29
2018-07-15T05:40:57.765Z,78.21
2018-07-15T05:43:26.893Z,77.60
2018-07-15T05:45:55.949Z,77.69
2018-07-15T05:48:26.157Z,77.35
2018-07-15T05:50:57.338Z,77.74
2018-07-15T05:53:26.445Z,78.27
2018-07-15T05:55:55.497Z,78.17
2018-07-15T05:58:24.689Z,77.52
2018-07-15T06:00:53.774Z,77.50
2018-07-15T06:03:22.925Z,76.31
2018-07-15T06:05:51.956Z,75.95
2018-07-15T06:08:21.093Z,75.55
2018-07-15T06:10:50.232Z,75.58
2018-07-15T06:13:19.270Z,75.14
2018-07-15T06:15:48.305Z,73.87
2018-07-15T06:18:17.461Z,74.29
2018-07-15T06:20:46.509Z,73.51
2018-07-15T06:23:15.595Z,73.78
2018-07-15T06:25:44.723Z,74.50
2018-07-15T06:28:13.780Z,73.29
2018-07-15T06:30:42.848Z,73.36
2018-07-15T06:33:11.937Z,73.23
2018-07-15T06:35:41.028Z,71.26
2018-07-15T06:38:10.304Z,71.13
2018-07-15T06:40:39.436Z,71.21
2018-07-15T06:43:08.536Z,71.08
2018-07-15T06:45:37.660Z,70.91
2018-07-15T06:48:06.868Z,71.07
2018-07-15T06:50:36.189Z,70.38
2018-07-15T06:53:05.300Z,70.25
2018-07-15T06:55:34.456Z,70.53
2018-07-15T06:58:04.266Z,70.56
2018-07-15T07:00:33.382Z,70.27
2018-07-15T07:03:02.526Z,70.09
2018-07-15T07:05:31.994Z,70.37
2018-07-15T07:08:01.262Z,70.53
2018-07-15T07:10:30.360Z,69.50
2018-07-15T07:12:59.427Z,69.61
2018-07-15T07:15:28.510Z,69.83
2018-07-15T07:17:57.582Z,68.65
2018-07-15T07:20:26.757Z,68.39
2018-07-15T07:22:55.815Z,67.80
2018-07-15T07:25:24.930Z,68.65
2018-07-15T07:27:54.185Z,67.74
2018-07-15T07:30:23.269Z,67.25
2018-07-15T07:32:52.455Z,66.59
2018-07-15T07:35:21.648Z,67.19
2018-07-15T07:37:50.670Z,67.73
2018-07-15T07:40:19.797Z,66.19
2018-07-15T07:42:48.865Z,65.77
2018-07-15T07:45:18.013Z,66.38
2018-07-15T07:47:47.081Z,66.27
2018-07-15T07:50:16.216Z,65.38
2018-07-15T07:52:45.304Z,64.06
2018-07-15T07:55:14.352Z,64.71
2018-07-15T07:57:43.484Z,63.33
2018-07-15T08:00:12.578Z,64.00
2018-07-15T08:02:41.755Z,63.68
2018-07-15T08:05:10.880Z,63.67
2018-07-15T08:07:39.963Z,63.18
2018-07-15T08:10:09.062Z,62.69
2018-07-15T08:12:38.121Z,61.81
2018-07-15T08:15:07.222Z,59.72
2018-07-15T08:17:36.295Z,59.51
2018-07-15T08:20:05.507Z,58.51
2018-07-15T08:22:34.851Z,59.51
2018-07-15T08:25:04.910Z,58.16
2018-07-15T08:27:34.558Z,58.52
2018-07-15T08:30:14.933Z,54.89
2018-07-15T08:32:44.209Z,55.87
2018-07-15T08:35:13.265Z,55.11
2018-07-15T08:37:42.457Z,57.17
2018-07-15T08:40:11.586Z,53.85
2018-07-15T08:42:40.665Z,54.10
2018-07-15T08:45:09.773Z,54.59
2018-07-15T08:47:38.925Z,54.79
2018-07-15T08:50:08.201Z,54.43
2018-07-15T08:52:37.334Z,54.46
2018-07-15T08:55:06.478Z,54.16
2018-07-15T08:57:35.745Z,54.59
2018-07-15T09:00:04.853Z,53.62
2018-07-15T09:02:33.934Z,52.93
2018-07-15T09:05:02.995Z,52.06
2018-07-15T09:07:32.065Z,51.78
2018-07-15T09:10:01.135Z,51.01
2018-07-15T09:12:30.195Z,50.82
2018-07-15T09:14:59.297Z,49.78
2018-07-15T09:17:28.482Z,49.92
2018-07-15T09:19:57.818Z,50.40
2018-07-15T09:22:26.896Z,52.02
2018-07-15T09:24:56.064Z,50.61
2018-07-15T09:27:25.128Z,51.24
2018-07-15T09:29:54.256Z,48.45
2018-07-15T09:32:23.446Z,49.15
2018-07-15T09:34:52.546Z,48.75
2018-07-15T09:37:21.740Z,48.07
2018-07-15T09:39:50.812Z,48.09
2018-07-15T09:42:19.901Z,47.98
2018-07-15T09:44:48.981Z,48.09
2018-07-15T09:47:18.071Z,47.12
2018-07-15T09:49:47.148Z,45.42
2018-07-15T09:52:16.315Z,45.43
2018-07-15T09:54:45.509Z,44.38
2018-07-15T09:57:14.738Z,44.33
2018-07-15T09:59:43.848Z,44.87
2018-07-15T10:02:12.922Z,44.26
2018-07-15T10:04:42.045Z,43.83
2018-07-15T10:07:11.114Z,45.16
2018-07-15T10:09:40.185Z,44.44
2018-07-15T10:12:09.358Z,43.11
2018-07-15T10:14:38.480Z,43.67
2018-07-15T10:17:07.679Z,42.87
2018-07-15T10:19:36.725Z,42.78
2018-07-15T10:22:05.878Z,43.14
2018-07-15T10:24:34.983Z,43.15
2018-07-15T10:27:04.125Z,41.63
2018-07-15T10:29:33.157Z,39.95
2018-07-15T10:32:02.230Z,39.69
2018-07-15T10:34:31.338Z,42.81
2018-07-15T10:37:00.589Z,41.35
2018-07-15T10:39:29.734Z,42.14
2018-07-15T10:41:58.761Z,42.48
2018-07-15T10:44:27.947Z,41.43
2018-07-15T10:46:57.012Z,40.37
2018-07-15T10:49:26.202Z,42.09
2018-07-15T10:51:55.301Z,43.96
2018-07-15T10:54:25.393Z,40.59
2018-07-15T10:56:54.542Z,40.60
2018-07-15T10:59:23.633Z,41.25
2018-07-15T11:01:52.723Z,41.32
2018-07-15T11:04:21.849Z,40.31
2018-07-15T11:06:50.997Z,39.88
2018-07-15T11:09:20.073Z,42.22
2018-07-15T11:11:49.201Z,41.45
2018-07-15T11:14:18.446Z,39.25
2018-07-15T11:16:47.541Z,38.40
2018-07-15T11:19:16.813Z,40.09
2018-07-15T11:21:45.887Z,38.92
2018-07-15T11:24:14.992Z,37.82
2018-07-15T11:26:44.128Z,39.31
2018-07-15T11:29:13.190Z,37.18
2018-07-15T11:31:42.382Z,41.13
2018-07-15T11:34:11.456Z,43.87
2018-07-15T11:36:40.767Z,41.19
2018-07-15T11:39:10.367Z,39.18
2018-07-15T11:41:39.318Z,38.48
2018-07-15T11:44:08.778Z,38.12
2018-07-15T11:46:37.981Z,38.59
2018-07-15T11:49:07.077Z,39.30
2018-07-15T11:51:36.265Z,39.76
2018-07-15T11:54:05.295Z,38.91
2018-07-15T11:56:34.368Z,39.60
2018-07-15T11:59:03.496Z,39.97
2018-07-15T12:01:32.699Z,40.37
2018-07-15T12:04:01.734Z,41.35
2018-07-15T12:06:30.949Z,40.45
2018-07-15T12:09:00.146Z,41.81
2018-07-15T12:11:29.348Z,41.06
2018-07-15T12:13:58.698Z,40.31
2018-07-15T12:16:27.790Z,44.56
2018-07-15T12:18:56.936Z,36.78
2018-07-15T12:21:25.994Z,36.61
2018-07-15T12:23:55.200Z,37.92
2018-07-15T12:26:24.284Z,37.48
2018-07-15T12:28:53.393Z,37.79
2018-07-15T12:31:22.501Z,36.31
2018-07-15T12:33:51.736Z,34.83
2018-07-15T12:36:20.921Z,33.90
2018-07-15T12:38:50.101Z,34.11
2018-07-15T12:41:19.289Z,32.68
2018-07-15T12:43:48.381Z,34.36
2018-07-15T12:46:17.457Z,32.68
2018-07-15T12:48:46.648Z,32.93
2018-07-15T12:51:15.737Z,36.77
2018-07-15T12:53:44.808Z,32.13
2018-07-15T12:56:14.089Z,32.12
2018-07-15T12:58:43.348Z,33.21
2018-07-15T13:01:12.529Z,37.77
2018-07-15T13:03:41.815Z,31.94
2018-07-15T13:06:11.425Z,31.60
2018-07-15T13:08:40.581Z,32.17
2018-07-15T13:11:09.719Z,34.30
2018-07-15T13:13:38.857Z,34.98
2018-07-15T13:16:08.073Z,33.09
2018-07-15T13:18:37.359Z,36.07
2018-07-15T13:21:06.872Z,32.89
2018-07-15T13:23:36.005Z,35.69
2018-07-15T13:26:05.096Z,38.62
2018-07-15T13:28:34.310Z,35.72
2018-07-15T13:31:03.552Z,36.06
2018-07-15T13:33:32.700Z,37.47
2018-07-15T13:36:01.970Z,36.82
2018-07-15T13:38:31.152Z,37.33
2018-07-15T13:41:00.214Z,35.40
2018-07-15T13:43:30.666Z,34.29
2018-07-15T13:45:59.742Z,35.29
2018-07-15T13:48:28.865Z,36.77
2018-07-15T13:50:58.042Z,38.74
2018-07-15T13:53:27.084Z,36.18
2018-07-15T13:55:57.164Z,35.86
2018-07-15T13:58:26.306Z,35.48
2018-07-15T14:00:55.371Z,36.05
2018-07-15T14:03:24.446Z,34.70
2018-07-15T14:05:53.526Z,35.24
2018-07-15T14:08:22.637Z,35.71
2018-07-15T14:10:52.006Z,36.57
2018-07-15T14:13:21.195Z,36.17
2018-07-15T14:15:50.467Z,36.07
2018-07-15T14:18:19.757Z,37.77
2018-07-15T14:20:49.066Z,41.09
2018-07-15T14:23:18.389Z,42.61
2018-07-15T14:25:47.589Z,43.98
2018-07-15T14:28:17.005Z,43.48
2018-07-15T14:30:46.137Z,43.65
2018-07-15T14:33:15.243Z,44.51
2018-07-15T14:35:44.479Z,44.93
2018-07-15T14:38:13.817Z,45.65
2018-07-15T14:40:44.022Z,46.33
2018-07-15T14:43:13.146Z,46.26
2018-07-15T14:45:44.854Z,46.85
2018-07-15T14:48:14.023Z,47.23
2018-07-15T14:50:43.966Z,47.47
2018-07-15T14:53:13.142Z,46.93
2018-07-15T14:55:43.422Z,47.36
2018-07-15T14:58:12.560Z,47.17
2018-07-15T15:00:41.770Z,47.33
2018-07-15T15:03:10.900Z,46.65
2018-07-15T15:05:40.020Z,47.41
2018-07-15T15:08:09.210Z,47.92
2018-07-15T15:10:38.504Z,47.58
2018-07-15T15:13:07.694Z,48.42
2018-07-15T15:15:36.856Z,48.07
2018-07-15T15:18:06.165Z,49.05
2018-07-15T15:20:35.378Z,49.42
2018-07-15T15:23:04.621Z,49.20
2018-07-15T15:25:33.864Z,50.40
2018-07-15T15:28:03.142Z,51.41
2018-07-15T15:30:32.318Z,51.27
2018-07-15T15:33:01.669Z,52.35
2018-07-15T15:35:30.905Z,52.96
2018-07-15T15:38:00.094Z,52.05
2018-07-15T15:40:29.261Z,53.11
2018-07-15T15:42:58.444Z,52.39
2018-07-15T15:45:27.623Z,55.48
2018-07-15T15:47:56.738Z,54.00
2018-07-15T15:50:25.937Z,55.66
2018-07-15T15:52:55.269Z,52.15
2018-07-15T15:55:25.355Z,48.41
2018-07-15T15:57:54.473Z,47.89
2018-07-15T16:00:23.759Z,48.18
2018-07-15T16:02:52.809Z,46.76
2018-07-15T16:05:21.900Z,45.71
2018-07-15T16:07:51.145Z,44.11
2018-07-15T16:10:20.227Z,44.65
2018-07-15T16:12:49.333Z,45.61
2018-07-15T16:15:18.493Z,44.81
2018-07-15T16:17:47.677Z,44.81
2018-07-15T16:20:16.820Z,42.98
2018-07-15T16:22:46.151Z,41.93
2018-07-15T16:25:15.205Z,41.78
2018-07-15T16:27:44.248Z,40.92
2018-07-15T16:30:13.763Z,44.15
2018-07-15T16:32:42.780Z,42.88
2018-07-15T16:35:11.962Z,45.64
2018-07-15T16:37:41.074Z,45.38
2018-07-15T16:40:10.134Z,43.65
2018-07-15T16:42:39.227Z,42.56
2018-07-15T16:45:08.537Z,43.47
2018-07-15T16:47:37.614Z,42.95
2018-07-15T16:50:07.162Z,45.00
2018-07-15T16:52:36.195Z,43.75
2018-07-15T16:55:05.301Z,44.58
2018-07-15T16:57:34.539Z,44.72
2018-07-15T17:00:04.158Z,45.46
2018-07-15T17:02:33.224Z,47.28
2018-07-15T17:05:02.430Z,45.45
2018-07-15T17:07:31.629Z,46.42
2018-07-15T17:10:00.821Z,47.78
2018-07-15T17:12:30.166Z,47.30
2018-07-15T17:14:59.629Z,50.49
2018-07-15T17:17:28.921Z,51.92
2018-07-15T17:19:57.946Z,52.73
2018-07-15T17:22:27.101Z,52.08
2018-07-15T17:24:56.161Z,52.17
2018-07-15T17:27:25.528Z,51.68
2018-07-15T17:29:54.609Z,51.58
2018-07-15T17:32:23.707Z,51.73
2018-07-15T17:34:52.812Z,52.49
2018-07-15T17:37:21.896Z,52.43
2018-07-15T17:39:51.008Z,52.34
2018-07-15T17:42:20.126Z,52.58
2018-07-15T17:44:49.140Z,52.36
2018-07-15T17:47:18.240Z,52.82
2018-07-15T17:49:47.382Z,52.30
2018-07-15T17:52:16.556Z,53.41
2018-07-15T17:54:45.654Z,53.07
2018-07-15T17:57:14.946Z,52.94
2018-07-15T17:59:44.007Z,53.21
2018-07-15T18:02:13.124Z,53.22
2018-07-15T18:04:42.268Z,52.49
2018-07-15T18:07:11.320Z,52.62
2018-07-15T18:09:40.485Z,53.79
2018-07-15T18:12:09.627Z,53.75
2018-07-15T18:14:38.685Z,52.68
2018-07-15T18:17:07.756Z,54.25
2018-07-15T18:19:36.915Z,54.82
2018-07-15T18:22:06.198Z,56.53
2018-07-15T18:24:35.619Z,56.34
2018-07-15T18:27:04.965Z,56.08
2018-07-15T18:29:34.090Z,56.28
2018-07-15T18:32:03.259Z,55.62
2018-07-15T18:34:32.326Z,56.34
2018-07-15T18:37:01.476Z,57.13
2018-07-15T18:39:30.561Z,57.12
2018-07-15T18:41:59.681Z,57.47
2018-07-15T18:44:28.985Z,57.48
2018-07-15T18:46:58.122Z,57.09
2018-07-15T18:49:27.146Z,57.79
2018-07-15T18:51:56.272Z,57.31
2018-07-15T18:54:25.398Z,56.95
2018-07-15T18:56:54.520Z,57.66
2018-07-15T18:59:23.771Z,56.69
2018-07-15T19:01:52.913Z,56.88
2018-07-15T19:04:22.009Z,56.98
2018-07-15T19:06:51.130Z,56.58
2018-07-15T19:09:20.224Z,57.37
2018-07-15T19:11:49.310Z,56.72
2018-07-15T19:14:18.464Z,56.76
2018-07-15T19:16:47.606Z,56.64
2018-07-15T19:19:16.701Z,58.11
2018-07-15T19:21:45.838Z,57.86
2018-07-15T19:24:14.938Z,57.80
2018-07-15T19:26:44.060Z,57.82
2018-07-15T19:29:13.125Z,57.92
2018-07-15T19:31:42.406Z,57.09
2018-07-15T19:34:11.430Z,57.31
2018-07-15T19:36:41.638Z,58.34
2018-07-15T19:39:10.855Z,58.67
2018-07-15T19:41:39.849Z,59.06
2018-07-15T19:44:08.933Z,58.84
2018-07-15T19:46:38.081Z,59.72
2018-07-15T19:49:07.193Z,59.28
2018-07-15T19:51:36.410Z,60.46
2018-07-15T19:54:05.505Z,60.42
2018-07-15T19:56:34.689Z,60.07
2018-07-15T19:59:03.832Z,58.75
2018-07-15T20:01:32.945Z,59.87
2018-07-15T20:04:02.137Z,60.61
2018-07-15T20:06:31.201Z,59.44
2018-07-15T20:09:00.321Z,59.62
2018-07-15T20:11:29.465Z,60.90
2018-07-15T20:13:58.549Z,60.57
2018-07-15T20:16:27.611Z,59.68
2018-07-15T20:18:56.739Z,60.24
2018-07-15T20:21:25.817Z,59.79
2018-07-15T20:23:54.889Z,60.24
2018-07-15T20:26:24.147Z,60.93
2018-07-15T20:28:54.264Z,61.49
2018-07-15T20:31:23.329Z,61.60
2018-07-15T20:33:52.465Z,61.87
2018-07-15T20:36:21.473Z,62.86
2018-07-15T20:38:50.613Z,62.29
2018-07-15T20:41:19.678Z,63.02
2018-07-15T20:43:48.761Z,63.06
2018-07-15T20:46:17.823Z,63.66
2018-07-15T20:48:46.893Z,63.76
2018-07-15T20:51:15.934Z,64.25
2018-07-15T20:53:45.044Z,64.68
2018-07-15T20:56:14.166Z,64.93
2018-07-15T20:58:43.324Z,65.34
2018-07-15T21:01:12.446Z,64.32
2018-07-15T21:03:41.572Z,64.88
2018-07-15T21:06:10.726Z,65.23
2018-07-15T21:08:39.822Z,64.94
2018-07-15T21:11:08.980Z,65.63
2018-07-15T21:13:38.073Z,65.90
2018-07-15T21:16:07.298Z,66.32
2018-07-15T21:18:36.407Z,66.40
2018-07-15T21:21:05.603Z,66.46
2018-07-15T21:23:34.754Z,66.21
2018-07-15T21:26:03.833Z,66.44
2018-07-15T21:28:33.146Z,66.15
2018-07-15T21:31:02.285Z,66.33
2018-07-15T21:33:31.372Z,65.86
2018-07-15T21:36:00.445Z,66.22
2018-07-15T21:38:29.529Z,66.27
2018-07-15T21:40:58.705Z,66.50
2018-07-15T21:43:27.789Z,67.11
2018-07-15T21:45:56.986Z,67.37
2018-07-15T21:48:26.069Z,67.31
2018-07-15T21:50:55.152Z,66.69
2018-07-15T21:53:24.214Z,66.71
2018-07-15T21:55:53.374Z,66.58
2018-07-15T21:58:22.422Z,66.75
2018-07-15T22:00:51.576Z,67.35
2018-07-15T22:03:20.624Z,67.57
2018-07-15T22:05:50.148Z,68.00
2018-07-15T22:08:30.607Z,68.02
2018-07-15T22:10:59.661Z,67.33
2018-07-15T22:13:28.826Z,67.41
2018-07-15T22:15:57.869Z,67.42
2018-07-15T22:18:27.029Z,67.21
2018-07-15T22:20:56.097Z,67.71
2018-07-15T22:23:25.177Z,68.24
2018-07-15T22:25:54.285Z,68.66
2018-07-15T22:28:23.361Z,68.73
2018-07-15T22:30:52.393Z,69.26
2018-07-15T22:33:21.481Z,69.34
2018-07-15T22:35:50.553Z,68.83
2018-07-15T22:38:19.633Z,68.75
2018-07-15T22:40:48.703Z,68.73
2018-07-15T22:43:17.779Z,68.92
2018-07-15T22:45:46.979Z,69.41
2018-07-15T22:48:16.041Z,69.71
2018-07-15T22:50:45.567Z,69.90
2018-07-15T22:53:14.675Z,70.21
2018-07-15T22:55:43.722Z,70.52
2018-07-15T22:58:12.837Z,70.61
2018-07-15T23:00:42.006Z,71.22
2018-07-15T23:03:11.076Z,71.99
2018-07-15T23:05:55.625Z,71.75
2018-07-15T23:08:25.612Z,71.85
2018-07-15T23:10:54.766Z,71.71
2018-07-15T23:13:23.825Z,71.87
2018-07-15T23:15:53.239Z,72.39
2018-07-15T23:18:22.875Z,72.41
2018-07-15T23:20:52.297Z,72.13
2018-07-15T23:23:21.365Z,71.91
2018-07-15T23:25:50.478Z,72.30
2018-07-15T23:28:19.630Z,71.62
2018-07-15T23:30:48.768Z,71.40
2018-07-15T23:33:17.826Z,70.53
2018-07-15T23:35:46.992Z,70.97
2018-07-15T23:38:16.068Z,70.63
2018-07-15T23:40:45.140Z,71.60
2018-07-15T23:43:14.212Z,72.10
2018-07-15T23:45:43.362Z,72.05
2018-07-15T23:48:12.409Z,72.20
2018-07-15T23:50:41.580Z,72.70
2018-07-15T23:53:10.613Z,73.27
2018-07-15T23:55:39.761Z,72.87
2018-07-15T23:58:08.923Z,73.36
